createdAt,value
2022-08-05T00:00:18.764Z,0.0
2022-08-05T00:02:18.549Z,0.0
2022-08-05T00:04:18.538Z,0.0
2022-08-05T00:06:28.974Z,0.0
2022-08-05T00:08:32.512Z,0.0
2022-08-05T00:10:18.460Z,0.0
2022-08-05T00:12:18.496Z,0.0
2022-08-05T00:14:18.484Z,0.0
2022-08-05T00:16:18.498Z,0.0
2022-08-05T00:18:21.679Z,0.0
2022-08-05T00:20:20.251Z,0.0
2022-08-05T00:22:19.859Z,0.0
2022-08-05T00:24:24.056Z,0.0
2022-08-05T00:26:18.525Z,0.0
2022-08-05T00:28:21.102Z,0.0
2022-08-05T00:30:18.510Z,0.0
2022-08-05T00:32:18.504Z,0.0
2022-08-05T00:34:54.968Z,0.0
2022-08-05T00:37:09.766Z,0.0
2022-08-05T00:38:18.511Z,0.0
2022-08-05T00:40:27.299Z,0.0
2022-08-05T00:42:31.709Z,0.0
2022-08-05T00:44:18.539Z,0.0
2022-08-05T00:46:18.510Z,0.0
2022-08-05T00:48:18.508Z,0.0
2022-08-05T00:50:18.513Z,0.0
2022-08-05T00:52:18.518Z,0.0
2022-08-05T00:54:18.533Z,0.0
2022-08-05T00:56:22.966Z,0.0
2022-08-05T00:58:19.158Z,0.0
2022-08-05T01:00:19.928Z,0.0
2022-08-05T01:02:18.558Z,0.0
2022-08-05T01:04:20.124Z,0.0
2022-08-05T01:06:18.555Z,0.0
2022-08-05T01:08:40.576Z,0.0
2022-08-05T01:10:18.545Z,0.0
2022-08-05T01:12:19.188Z,0.0
2022-08-05T01:14:18.535Z,0.0
2022-08-05T01:16:21.008Z,0.0
2022-08-05T01:18:18.561Z,0.0
2022-08-05T01:20:18.560Z,0.0
2022-08-05T01:22:23.830Z,0.0
2022-08-05T01:24:18.591Z,0.0
2022-08-05T01:26:18.564Z,0.0
2022-08-05T01:28:18.570Z,0.0
2022-08-05T01:30:18.670Z,0.0
2022-08-05T01:32:18.886Z,0.0
2022-08-05T01:34:18.615Z,0.0
2022-08-05T01:36:18.857Z,0.0
2022-08-05T01:38:26.811Z,0.0
2022-08-05T01:40:18.590Z,0.0
2022-08-05T01:42:18.592Z,0.0
2022-08-05T01:44:18.603Z,0.0
2022-08-05T01:46:41.410Z,0.0
2022-08-05T01:48:18.614Z,0.0
2022-08-05T01:50:18.598Z,0.0
2022-08-05T01:52:19.066Z,0.0
2022-08-05T01:54:18.612Z,0.0
2022-08-05T01:58:13.576Z,0.0
2022-08-05T01:58:18.613Z,0.0
2022-08-05T01:58:29.496Z,0.0
2022-08-05T02:00:18.612Z,0.0
2022-08-05T02:02:18.668Z,0.0
2022-08-05T02:04:18.612Z,0.0
2022-08-05T02:06:37.575Z,0.0
2022-08-05T02:08:19.987Z,0.0
2022-08-05T02:10:18.632Z,0.0
2022-08-05T02:12:18.612Z,0.0
2022-08-05T02:14:18.695Z,0.0
2022-08-05T02:16:18.624Z,0.0
2022-08-05T02:18:31.138Z,0.0
2022-08-05T02:20:20.782Z,0.0
2022-08-05T02:22:27.018Z,0.0
2022-08-05T02:24:18.596Z,0.0
2022-08-05T02:26:18.575Z,0.0
2022-08-05T02:28:29.316Z,0.0
2022-08-05T02:30:18.578Z,0.0
2022-08-05T02:32:23.848Z,0.0
2022-08-05T02:34:18.639Z,0.0
2022-08-05T02:36:18.596Z,0.0
2022-08-05T02:38:19.518Z,0.0
2022-08-05T02:40:18.595Z,0.0
2022-08-05T02:42:25.898Z,0.0
2022-08-05T02:44:18.594Z,0.0
2022-08-05T02:46:18.607Z,0.0
2022-08-05T02:48:18.578Z,0.0
2022-08-05T02:50:18.596Z,0.0
2022-08-05T02:52:29.609Z,0.0
2022-08-05T02:54:35.999Z,0.0
2022-08-05T02:56:19.019Z,0.0
2022-08-05T02:58:19.815Z,0.0
2022-08-05T03:00:18.608Z,0.0
2022-08-05T03:02:18.656Z,0.0
2022-08-05T03:04:18.640Z,0.0
2022-08-05T03:06:55.503Z,0.0
2022-08-05T03:08:19.595Z,0.0
2022-08-05T03:10:24.349Z,0.0
2022-08-05T03:12:18.660Z,0.0
2022-08-05T03:14:18.673Z,0.0
2022-08-05T03:16:18.708Z,0.0
2022-08-05T03:18:18.656Z,0.0
2022-08-05T03:20:18.690Z,0.0
2022-08-05T03:22:19.091Z,0.0
2022-08-05T03:24:29.280Z,0.0
2022-08-05T03:26:32.299Z,0.0
2022-08-05T03:28:19.726Z,0.0
2022-08-05T03:30:18.687Z,0.0
2022-08-05T03:32:19.327Z,0.0
2022-08-05T03:34:19.041Z,0.0
2022-08-05T03:36:30.293Z,0.0
2022-08-05T03:38:23.827Z,0.0
2022-08-05T03:40:31.484Z,0.0
2022-08-05T03:42:19.074Z,0.0
2022-08-05T03:44:19.709Z,0.0
2022-08-05T03:46:19.003Z,0.0
2022-08-05T03:48:21.919Z,0.0
2022-08-05T03:50:19.032Z,0.0
2022-08-05T03:52:50.353Z,0.0
2022-08-05T03:55:49.905Z,0.0
2022-08-05T03:55:53.788Z,0.0
2022-08-05T03:56:05.757Z,0.0
2022-08-05T03:56:30.476Z,0.0
2022-08-05T03:58:19.044Z,0.0
2022-08-05T04:00:18.998Z,0.0
2022-08-05T04:02:37.334Z,0.0
2022-08-05T04:04:21.201Z,0.0
2022-08-05T04:06:18.758Z,0.0
2022-08-05T04:08:36.398Z,0.0
2022-08-05T04:10:18.746Z,0.0
2022-08-05T04:12:24.618Z,0.0
2022-08-05T04:14:18.884Z,0.0
2022-08-05T04:16:25.048Z,3.2
2022-08-05T04:18:20.562Z,3.2
2022-08-05T04:20:18.742Z,3.2
2022-08-05T04:22:20.625Z,3.2
2022-08-05T04:24:22.676Z,3.2
2022-08-05T04:26:18.751Z,3.2
2022-08-05T04:28:18.749Z,3.2
2022-08-05T04:30:18.742Z,3.2
2022-08-05T04:32:20.145Z,4.8
2022-08-05T04:34:33.791Z,4.8
2022-08-05T04:36:46.488Z,4.8
2022-08-05T04:38:18.735Z,3.2
2022-08-05T04:40:19.619Z,3.2
2022-08-05T04:42:18.759Z,3.2
2022-08-05T04:44:21.553Z,3.2
2022-08-05T04:46:28.390Z,0.0
2022-08-05T04:48:27.524Z,0.0
2022-08-05T04:50:37.592Z,0.0
2022-08-05T04:52:18.814Z,0.0
2022-08-05T04:54:18.749Z,0.0
2022-08-05T04:56:35.237Z,0.0
2022-08-05T04:58:21.522Z,0.0
2022-08-05T05:00:18.758Z,0.0
2022-08-05T05:02:37.540Z,0.0
2022-08-05T05:04:18.839Z,0.0
2022-08-05T05:06:36.573Z,0.0
2022-08-05T05:08:30.034Z,0.0
2022-08-05T05:10:18.845Z,0.0
2022-08-05T05:12:18.859Z,0.0
2022-08-05T05:14:18.833Z,0.0
2022-08-05T05:16:19.789Z,0.0
2022-08-05T05:18:31.234Z,0.0
2022-08-05T05:20:18.832Z,0.0
2022-08-05T05:22:23.570Z,0.0
2022-08-05T05:24:18.850Z,0.0
2022-08-05T05:26:18.827Z,0.0
2022-08-05T05:28:18.845Z,0.0
2022-08-05T05:30:31.463Z,0.0
2022-08-05T05:32:18.853Z,0.0
2022-08-05T05:34:24.168Z,0.0
2022-08-05T05:36:18.858Z,0.0
2022-08-05T05:38:22.584Z,0.0
2022-08-05T05:40:18.851Z,0.0
2022-08-05T05:42:18.851Z,0.0
2022-08-05T05:44:36.898Z,0.0
2022-08-05T05:46:19.107Z,0.0
2022-08-05T05:48:18.877Z,0.0
2022-08-05T05:50:19.663Z,0.0
2022-08-05T05:52:29.853Z,1.6
2022-08-05T05:54:19.703Z,1.6
2022-08-05T05:56:26.102Z,0.0
2022-08-05T05:58:18.880Z,0.0
2022-08-05T06:00:18.900Z,0.0
2022-08-05T06:02:32.727Z,0.0
2022-08-05T06:04:18.928Z,0.0
2022-08-05T06:06:18.888Z,0.0
2022-08-05T06:08:31.507Z,1.6
2022-08-05T06:10:18.859Z,1.6
2022-08-05T06:12:19.586Z,1.6
2022-08-05T06:14:18.899Z,3.2
2022-08-05T06:16:30.075Z,4.8
2022-08-05T06:18:18.841Z,4.8
2022-08-05T06:20:21.708Z,4.8
2022-08-05T06:22:18.828Z,4.8
2022-08-05T06:24:18.845Z,6.4
2022-08-05T06:26:20.854Z,6.4
2022-08-05T06:28:21.124Z,4.8
2022-08-05T06:30:21.175Z,4.8
2022-08-05T06:32:25.112Z,3.2
2022-08-05T06:34:19.808Z,6.4
2022-08-05T06:36:18.863Z,6.4
2022-08-05T06:38:36.464Z,6.4
2022-08-05T06:40:21.221Z,8.0
2022-08-05T06:42:18.877Z,6.4
2022-08-05T06:44:18.856Z,6.4
2022-08-05T06:46:18.871Z,4.8
2022-08-05T06:48:53.727Z,4.8
2022-08-05T06:50:18.890Z,9.7
2022-08-05T06:52:36.863Z,9.7
2022-08-05T06:54:18.979Z,8.0
2022-08-05T06:56:26.442Z,6.4
2022-08-05T06:58:29.177Z,6.4
2022-08-05T07:00:22.233Z,11.3
2022-08-05T07:02:18.919Z,12.9
2022-08-05T07:04:19.099Z,17.7
2022-08-05T07:06:19.166Z,17.7
2022-08-05T07:08:18.933Z,8.0
2022-08-05T07:10:18.925Z,6.4
2022-08-05T07:12:18.943Z,6.4
2022-08-05T07:14:20.569Z,6.4
2022-08-05T07:17:56.484Z,8.0
2022-08-05T07:17:59.793Z,8.0
2022-08-05T07:18:28.930Z,14.5
2022-08-05T07:20:37.155Z,14.5
2022-08-05T07:22:18.949Z,17.7
2022-08-05T07:24:18.947Z,17.7
2022-08-05T07:26:22.685Z,17.7
2022-08-05T07:28:18.946Z,16.1
2022-08-05T07:30:23.827Z,17.7
2022-08-05T07:32:18.973Z,17.7
2022-08-05T07:34:21.228Z,17.7
2022-08-05T07:36:20.739Z,16.1
2022-08-05T07:38:26.470Z,14.5
2022-08-05T07:40:31.948Z,14.5
2022-08-05T07:42:19.069Z,14.5
2022-08-05T07:44:19.684Z,14.5
2022-08-05T07:46:24.466Z,14.5
2022-08-05T07:49:02.554Z,17.7
2022-08-05T07:50:21.681Z,19.3
2022-08-05T07:52:19.002Z,19.3
2022-08-05T07:54:19.096Z,19.3
2022-08-05T07:57:01.505Z,19.3
2022-08-05T07:57:50.581Z,19.3
2022-08-05T07:58:57.374Z,14.5
2022-08-05T08:00:18.983Z,14.5
2022-08-05T08:02:18.995Z,29.0
2022-08-05T08:04:23.015Z,29.0
2022-08-05T08:06:18.995Z,17.7
2022-08-05T08:08:19.962Z,19.3
2022-08-05T08:10:20.570Z,19.3
2022-08-05T08:12:33.348Z,12.9
2022-08-05T08:14:19.236Z,12.9
2022-08-05T08:16:34.904Z,16.1
2022-08-05T08:18:20.901Z,16.1
2022-08-05T08:20:42.835Z,16.1
2022-08-05T08:22:19.014Z,12.9
2022-08-05T08:24:19.026Z,12.9
2022-08-05T08:26:26.789Z,20.9
2022-08-05T08:28:35.509Z,20.9
2022-08-05T08:30:32.205Z,20.9
2022-08-05T08:32:19.081Z,16.1
2022-08-05T08:34:19.026Z,14.5
2022-08-05T08:36:37.411Z,12.9
2022-08-05T08:38:19.038Z,9.7
2022-08-05T08:40:19.139Z,16.1
2022-08-05T08:42:50.598Z,16.1
2022-08-05T08:45:19.194Z,16.1
2022-08-05T08:45:26.954Z,16.1
2022-08-05T08:46:19.025Z,14.5
2022-08-05T08:48:36.144Z,14.5
2022-08-05T08:50:32.994Z,16.1
2022-08-05T08:52:19.036Z,16.1
2022-08-05T08:54:19.057Z,14.5
2022-08-05T08:56:19.061Z,16.1
2022-08-05T08:58:19.068Z,16.1
2022-08-05T09:00:19.307Z,16.1
2022-08-05T09:02:19.186Z,16.1
2022-08-05T09:04:19.020Z,16.1
2022-08-05T09:06:21.437Z,9.7
2022-08-05T09:08:19.037Z,9.7
2022-08-05T09:10:19.036Z,8.0
2022-08-05T09:12:20.539Z,16.1
2022-08-05T09:14:59.201Z,16.1
2022-08-05T09:16:19.052Z,17.7
2022-08-05T09:18:19.068Z,17.7
2022-08-05T09:20:36.719Z,17.7
2022-08-05T09:22:25.001Z,11.3
2022-08-05T09:24:19.054Z,11.3
2022-08-05T09:26:20.745Z,12.9
2022-08-05T09:28:21.224Z,16.1
2022-08-05T09:30:19.167Z,16.1
2022-08-05T09:32:45.803Z,12.9
2022-08-05T09:34:19.098Z,12.9
2022-08-05T09:36:19.078Z,9.7
2022-08-05T09:38:19.058Z,9.7
2022-08-05T09:40:19.134Z,9.7
2022-08-05T09:42:23.171Z,9.7
2022-08-05T09:44:19.083Z,6.4
2022-08-05T09:46:19.075Z,9.7
2022-08-05T09:48:19.094Z,14.5
2022-08-05T09:50:37.603Z,14.5
2022-08-05T09:52:19.142Z,12.9
2022-08-05T09:54:21.399Z,9.7
2022-08-05T09:56:19.080Z,11.3
2022-08-05T09:58:19.113Z,12.9
2022-08-05T10:00:19.117Z,12.9
2022-08-05T10:02:20.512Z,12.9
2022-08-05T10:04:19.122Z,12.9
2022-08-05T10:06:19.111Z,12.9
2022-08-05T10:08:37.666Z,12.9
2022-08-05T10:10:28.022Z,14.5
2022-08-05T10:12:33.580Z,14.5
2022-08-05T10:14:19.138Z,6.4
2022-08-05T10:16:19.115Z,6.4
2022-08-05T10:18:19.133Z,11.3
2022-08-05T10:20:20.019Z,11.3
2022-08-05T10:22:30.076Z,11.3
2022-08-05T10:24:19.124Z,9.7
2022-08-05T10:26:19.137Z,12.9
2022-08-05T10:28:30.319Z,12.9
2022-08-05T10:31:20.376Z,12.9
2022-08-05T10:32:51.845Z,12.9
2022-08-05T10:32:51.959Z,12.9
2022-08-05T10:33:02.956Z,17.7
2022-08-05T10:34:19.156Z,17.7
2022-08-05T10:36:23.650Z,16.1
2022-08-05T10:38:19.180Z,6.4
2022-08-05T10:40:19.541Z,14.5
2022-08-05T10:42:22.909Z,14.5
2022-08-05T10:44:19.171Z,11.3
2022-08-05T10:46:19.166Z,12.9
2022-08-05T10:48:30.990Z,16.1
2022-08-05T10:50:31.777Z,17.7
2022-08-05T10:52:19.175Z,17.7
2022-08-05T10:54:28.629Z,17.7
2022-08-05T10:56:21.185Z,19.3
2022-08-05T10:58:19.172Z,19.3
2022-08-05T11:00:20.683Z,19.3
2022-08-05T11:02:38.209Z,12.9
2022-08-05T11:04:21.336Z,17.7
2022-08-05T11:06:19.161Z,17.7
2022-08-05T11:08:37.386Z,17.7
2022-08-05T11:10:19.182Z,19.3
2022-08-05T11:12:19.178Z,19.3
2022-08-05T11:14:19.191Z,19.3
2022-08-05T11:16:19.200Z,8.0
2022-08-05T11:18:19.193Z,12.9
2022-08-05T11:20:19.326Z,12.9
2022-08-05T11:22:19.189Z,8.0
2022-08-05T11:24:29.748Z,6.4
2022-08-05T11:26:29.223Z,12.9
2022-08-05T11:28:19.214Z,12.9
2022-08-05T11:30:19.214Z,12.9
2022-08-05T11:32:19.202Z,16.1
2022-08-05T11:34:22.752Z,16.1
2022-08-05T11:36:34.678Z,16.1
2022-08-05T11:38:28.066Z,16.1
2022-08-05T11:40:18.394Z,12.9
2022-08-05T11:42:18.330Z,12.9
2022-08-05T11:44:40.859Z,12.9
2022-08-05T11:46:32.332Z,12.9
2022-08-05T11:48:16.714Z,14.5
2022-08-05T11:50:16.734Z,14.5
2022-08-05T11:52:16.726Z,11.3
2022-08-05T11:54:16.733Z,17.7
2022-08-05T11:56:16.734Z,17.7
2022-08-05T11:58:17.431Z,12.9
2022-08-05T12:00:16.732Z,12.9
2022-08-05T12:02:29.781Z,4.8
2022-08-05T12:04:16.749Z,14.5
2022-08-05T12:06:16.742Z,14.5
2022-08-05T12:08:18.205Z,14.5
2022-08-05T12:10:16.756Z,11.3
2022-08-05T12:12:16.748Z,14.5
2022-08-05T12:14:16.941Z,14.5
2022-08-05T12:16:16.785Z,9.7
2022-08-05T12:18:17.076Z,12.9
2022-08-05T12:20:27.272Z,14.5
2022-08-05T12:22:17.985Z,14.5
2022-08-05T12:24:17.342Z,14.5
2022-08-05T12:26:16.764Z,9.7
2022-08-05T12:28:16.765Z,9.7
2022-08-05T12:30:16.749Z,12.9
2022-08-05T12:32:16.773Z,17.7
2022-08-05T12:34:21.454Z,17.7
2022-08-05T12:36:16.833Z,17.7
2022-08-05T12:38:16.774Z,8.0
2022-08-05T12:40:20.885Z,9.7
2022-08-05T12:42:16.776Z,9.7
2022-08-05T12:44:21.694Z,12.9
2022-08-05T12:46:16.829Z,12.9
2022-08-05T12:48:27.045Z,12.9
2022-08-05T12:50:16.769Z,14.5
2022-08-05T12:52:23.860Z,14.5
2022-08-05T12:54:23.638Z,14.5
2022-08-05T12:56:34.483Z,9.7
2022-08-05T12:58:49.557Z,6.4
2022-08-05T13:02:02.521Z,14.5
2022-08-05T13:02:02.929Z,14.5
2022-08-05T13:02:17.065Z,14.5
2022-08-05T13:04:21.088Z,11.3
2022-08-05T13:06:17.010Z,11.3
2022-08-05T13:08:17.162Z,12.9
2022-08-05T13:10:20.284Z,12.9
2022-08-05T13:12:17.028Z,14.5
2022-08-05T13:14:19.778Z,14.5
2022-08-05T13:16:17.127Z,14.5
2022-08-05T13:18:19.751Z,11.3
2022-08-05T13:20:21.676Z,11.3
2022-08-05T13:22:28.058Z,12.9
2022-08-05T13:24:36.605Z,12.9
2022-08-05T13:26:16.816Z,12.9
2022-08-05T13:28:16.818Z,12.9
2022-08-05T13:30:35.144Z,12.9
2022-08-05T13:32:21.799Z,12.9
2022-08-05T13:34:22.767Z,12.9
2022-08-05T13:36:16.892Z,16.1
2022-08-05T13:38:28.471Z,16.1
2022-08-05T13:40:36.828Z,11.3
2022-08-05T13:42:16.827Z,9.7
2022-08-05T13:44:16.837Z,8.0
2022-08-05T13:46:30.365Z,8.0
2022-08-05T13:48:58.155Z,12.9
2022-08-05T13:50:17.124Z,12.9
2022-08-05T13:52:16.858Z,12.9
2022-08-05T13:54:16.941Z,8.0
2022-08-05T13:56:18.993Z,9.7
2022-08-05T13:58:30.435Z,16.1
2022-08-05T14:00:17.443Z,16.1
2022-08-05T14:02:19.958Z,16.1
2022-08-05T14:04:16.854Z,16.1
2022-08-05T14:06:26.721Z,17.7
2022-08-05T14:08:20.936Z,17.7
2022-08-05T14:10:19.176Z,17.7
2022-08-05T14:12:17.750Z,22.5
2022-08-05T14:14:23.300Z,22.5
2022-08-05T14:16:19.216Z,19.3
2022-08-05T14:18:18.273Z,19.3
2022-08-05T14:20:17.418Z,19.3
2022-08-05T14:22:16.900Z,19.3
2022-08-05T14:24:19.495Z,20.9
2022-08-05T14:26:35.840Z,22.5
2022-08-05T14:28:27.046Z,22.5
2022-08-05T14:30:20.149Z,22.5
2022-08-05T14:32:27.090Z,17.7
2022-08-05T14:34:16.947Z,20.9
2022-08-05T14:36:20.654Z,20.9
2022-08-05T14:38:32.788Z,20.9
2022-08-05T14:40:17.217Z,20.9
2022-08-05T14:42:21.011Z,19.3
2022-08-05T14:44:20.646Z,17.7
2022-08-05T14:46:16.859Z,12.9
2022-08-05T14:48:33.504Z,11.3
2022-08-05T14:50:19.161Z,20.9
2022-08-05T14:52:36.366Z,20.9
2022-08-05T14:54:30.058Z,20.9
2022-08-05T14:56:22.688Z,20.9
2022-08-05T14:58:16.910Z,22.5
2022-08-05T15:00:16.933Z,27.4
2022-08-05T15:02:16.936Z,27.4
2022-08-05T15:04:16.916Z,22.5
2022-08-05T15:06:16.925Z,24.1
2022-08-05T15:08:58.055Z,24.1
2022-08-05T15:10:16.887Z,17.7
2022-08-05T15:12:17.298Z,17.7
2022-08-05T15:14:33.191Z,17.7
2022-08-05T15:16:17.288Z,17.7
2022-08-05T15:18:17.386Z,19.3
2022-08-05T15:20:19.330Z,19.3
2022-08-05T15:22:16.982Z,19.3
2022-08-05T15:24:17.020Z,16.1
2022-08-05T15:26:16.970Z,17.7
2022-08-05T15:28:16.936Z,17.7
2022-08-05T15:30:16.951Z,12.9
2022-08-05T15:32:17.222Z,16.1
2022-08-05T15:34:31.222Z,16.1
2022-08-05T15:36:24.115Z,19.3
2022-08-05T15:38:36.169Z,19.3
2022-08-05T15:40:59.594Z,16.1
2022-08-05T15:41:24.406Z,16.1
2022-08-05T15:42:28.760Z,16.1
2022-08-05T15:44:17.463Z,11.3
2022-08-05T15:46:16.922Z,19.3
2022-08-05T15:48:16.963Z,19.3
2022-08-05T15:50:16.957Z,19.3
2022-08-05T15:52:51.633Z,14.5
2022-08-05T15:54:16.965Z,14.5
2022-08-05T15:56:16.994Z,14.5
2022-08-05T15:58:17.153Z,12.9
2022-08-05T16:00:17.039Z,12.9
2022-08-05T16:02:19.655Z,8.0
2022-08-05T16:04:18.104Z,8.0
2022-08-05T16:06:19.828Z,14.5
2022-08-05T16:08:17.090Z,16.1
2022-08-05T16:10:17.006Z,16.1
2022-08-05T16:12:17.039Z,17.7
2022-08-05T16:14:17.765Z,17.7
2022-08-05T16:16:21.217Z,17.7
2022-08-05T16:18:17.000Z,11.3
2022-08-05T16:20:17.008Z,20.9
2022-08-05T16:22:17.108Z,20.9
2022-08-05T16:24:40.381Z,14.5
2022-08-05T16:26:17.044Z,14.5
2022-08-05T16:28:17.193Z,9.7
2022-08-05T16:30:25.478Z,12.9
2022-08-05T16:32:17.007Z,12.9
2022-08-05T16:34:17.021Z,16.1
2022-08-05T16:36:20.508Z,16.1
2022-08-05T16:38:25.356Z,16.1
2022-08-05T16:40:29.166Z,16.1
2022-08-05T16:42:21.554Z,12.9
2022-08-05T16:44:17.134Z,12.9
2022-08-05T16:46:24.603Z,9.7
2022-08-05T16:48:26.187Z,16.1
2022-08-05T16:50:17.070Z,16.1
2022-08-05T16:52:17.173Z,16.1
2022-08-05T16:54:22.447Z,12.9
2022-08-05T16:56:17.038Z,9.7
2022-08-05T16:58:19.904Z,8.0
2022-08-05T17:00:26.291Z,11.3
2022-08-05T17:02:17.445Z,11.3
2022-08-05T17:04:18.772Z,9.7
2022-08-05T17:06:17.066Z,9.7
2022-08-05T17:08:17.021Z,19.3
2022-08-05T17:10:17.063Z,19.3
2022-08-05T17:12:17.118Z,19.3
2022-08-05T17:14:34.084Z,11.3
2022-08-05T17:16:33.128Z,4.8
2022-08-05T17:18:17.070Z,3.2
2022-08-05T17:20:17.069Z,4.8
2022-08-05T17:22:24.697Z,4.8
2022-08-05T17:24:30.180Z,4.8
2022-08-05T17:26:17.070Z,4.8
2022-08-05T17:28:17.113Z,4.8
2022-08-05T17:30:19.160Z,3.2
2022-08-05T17:32:17.768Z,4.8
2022-08-05T17:34:17.800Z,6.4
2022-08-05T17:36:32.729Z,6.4
2022-08-05T17:38:17.465Z,6.4
2022-08-05T17:40:17.215Z,3.2
2022-08-05T17:42:22.763Z,4.8
2022-08-05T17:44:17.097Z,14.5
2022-08-05T17:46:17.150Z,14.5
2022-08-05T17:48:17.104Z,14.5
2022-08-05T17:50:17.076Z,24.1
2022-08-05T17:52:17.217Z,24.1
2022-08-05T17:54:17.145Z,24.1
2022-08-05T17:56:17.077Z,25.7
2022-08-05T17:58:17.099Z,32.2
2022-08-05T18:00:17.100Z,32.2
2022-08-05T18:02:17.099Z,24.1
2022-08-05T18:04:18.600Z,19.3
2022-08-05T18:06:17.263Z,17.7
2022-08-05T18:08:17.130Z,12.9
2022-08-05T18:10:20.718Z,17.7
2022-08-05T18:12:17.180Z,17.7
2022-08-05T18:14:20.577Z,17.7
2022-08-05T18:16:20.257Z,29.0
2022-08-05T18:18:17.131Z,29.0
2022-08-05T18:20:17.174Z,19.3
2022-08-05T18:22:18.036Z,19.3
2022-08-05T18:24:17.105Z,16.1
2022-08-05T18:26:18.173Z,20.9
2022-08-05T18:28:17.324Z,20.9
2022-08-05T18:30:17.168Z,24.1
2022-08-05T18:32:17.068Z,24.1
2022-08-05T18:34:17.089Z,24.1
2022-08-05T18:36:17.188Z,22.5
2022-08-05T18:38:19.477Z,20.9
2022-08-05T18:40:34.046Z,20.9
2022-08-05T18:41:59.689Z,20.9
2022-08-05T18:42:17.186Z,20.9
2022-08-05T18:44:33.255Z,20.9
2022-08-05T18:46:19.822Z,22.5
2022-08-05T18:48:30.665Z,33.8
2022-08-05T18:50:17.104Z,33.8
2022-08-05T18:52:17.112Z,33.8
2022-08-05T18:54:17.121Z,27.4
2022-08-05T18:56:17.110Z,27.4
2022-08-05T18:58:17.120Z,25.7
2022-08-05T19:00:20.470Z,17.7
2022-08-05T19:02:28.085Z,17.7
2022-08-05T19:04:23.988Z,17.7
2022-08-05T19:06:21.730Z,24.1
2022-08-05T19:08:17.174Z,25.7
2022-08-05T19:10:17.319Z,25.7
2022-08-05T19:12:17.275Z,25.7
2022-08-05T19:14:38.079Z,20.9
2022-08-05T19:16:25.187Z,17.7
2022-08-05T19:18:20.739Z,17.7
2022-08-05T19:20:17.207Z,19.3
2022-08-05T19:22:17.726Z,19.3
2022-08-05T19:24:17.213Z,20.9
2022-08-05T19:26:17.196Z,20.9
2022-08-05T19:28:17.273Z,20.9
2022-08-05T19:30:17.223Z,16.1
2022-08-05T19:32:17.175Z,19.3
2022-08-05T19:34:18.656Z,19.3
2022-08-05T19:36:17.187Z,19.3
2022-08-05T19:38:20.333Z,20.9
2022-08-05T19:40:17.328Z,20.9
2022-08-05T19:42:17.214Z,12.9
2022-08-05T19:44:17.225Z,20.9
2022-08-05T19:46:29.522Z,22.5
2022-08-05T19:48:17.240Z,22.5
2022-08-05T19:50:17.272Z,22.5
2022-08-05T19:52:31.003Z,17.7
2022-08-05T19:54:25.450Z,17.7
2022-08-05T19:56:24.303Z,17.7
2022-08-05T19:58:28.220Z,27.4
2022-08-05T20:00:17.223Z,27.4
2022-08-05T20:02:17.649Z,22.5
2022-08-05T20:04:17.273Z,22.5
2022-08-05T20:06:28.762Z,19.3
2022-08-05T20:08:17.452Z,25.7
2022-08-05T20:10:17.332Z,25.7
2022-08-05T20:12:17.340Z,25.7
2022-08-05T20:14:26.710Z,20.9
2022-08-05T20:16:19.512Z,19.3
2022-08-05T20:18:33.779Z,17.7
2022-08-05T20:20:17.584Z,17.7
2022-08-05T20:22:17.443Z,14.5
2022-08-05T20:24:17.264Z,12.9
2022-08-05T20:26:17.923Z,12.9
2022-08-05T20:28:17.535Z,14.5
2022-08-05T20:30:19.615Z,20.9
2022-08-05T20:32:17.514Z,20.9
2022-08-05T20:34:17.279Z,20.9
2022-08-05T20:36:17.960Z,20.9
2022-08-05T20:38:27.357Z,20.9
2022-08-05T20:40:18.019Z,19.3
2022-08-05T20:42:21.903Z,19.3
2022-08-05T20:44:29.692Z,16.1
2022-08-05T20:46:18.431Z,16.1
2022-08-05T20:48:17.452Z,16.1
2022-08-05T20:50:20.221Z,17.7
2022-08-05T20:52:17.600Z,17.7
2022-08-05T20:54:17.556Z,16.1
2022-08-05T20:56:17.287Z,19.3
2022-08-05T20:58:17.450Z,19.3
2022-08-05T21:00:40.743Z,19.3
2022-08-05T21:04:17.307Z,11.3
2022-08-05T21:06:27.626Z,17.7
2022-08-05T21:08:17.269Z,17.7
2022-08-05T21:10:17.274Z,11.3
2022-08-05T21:12:17.272Z,11.3
2022-08-05T21:14:17.331Z,12.9
2022-08-05T21:16:17.238Z,19.3
2022-08-05T21:18:17.266Z,19.3
2022-08-05T21:20:32.680Z,19.3
2022-08-05T21:22:18.707Z,24.1
2022-08-05T21:24:17.279Z,24.1
2022-08-05T21:26:17.316Z,22.5
2022-08-05T21:28:18.607Z,16.1
2022-08-05T21:30:17.835Z,16.1
2022-08-05T21:32:19.846Z,16.1
2022-08-05T21:34:17.266Z,12.9
2022-08-05T21:36:19.253Z,30.6
2022-08-05T21:38:17.389Z,30.6
2022-08-05T21:40:17.436Z,30.6
2022-08-05T21:42:31.146Z,16.1
2022-08-05T21:44:17.423Z,12.9
2022-08-05T21:46:17.394Z,12.9
2022-08-05T21:48:17.374Z,14.5
2022-08-05T21:50:17.363Z,16.1
2022-08-05T21:52:28.184Z,16.1
2022-08-05T21:54:17.305Z,16.1
2022-08-05T21:56:17.428Z,17.7
2022-08-05T21:58:17.287Z,17.7
2022-08-05T22:00:17.288Z,17.7
2022-08-05T22:02:17.337Z,16.1
2022-08-05T22:04:17.307Z,17.7
2022-08-05T22:06:22.953Z,19.3
2022-08-05T22:08:22.559Z,19.3
2022-08-05T22:10:17.315Z,19.3
2022-08-05T22:12:17.317Z,19.3
2022-08-05T22:14:37.249Z,19.3
2022-08-05T22:16:40.503Z,19.3
2022-08-05T22:18:18.853Z,19.3
2022-08-05T22:20:17.669Z,19.3
2022-08-05T22:22:17.316Z,19.3
2022-08-05T22:24:40.486Z,11.3
2022-08-05T22:26:17.292Z,16.1
2022-08-05T22:28:18.252Z,16.1
2022-08-05T22:30:17.342Z,16.1
2022-08-05T22:32:17.770Z,12.9
2022-08-05T22:34:25.725Z,16.1
2022-08-05T22:36:17.317Z,16.1
2022-08-05T22:38:17.340Z,16.1
2022-08-05T22:40:20.400Z,12.9
2022-08-05T22:42:25.410Z,12.9
2022-08-05T22:44:19.129Z,11.3
2022-08-05T22:46:23.626Z,14.5
2022-08-05T22:48:17.344Z,14.5
2022-08-05T22:50:23.483Z,16.1
2022-08-05T22:52:22.780Z,16.1
2022-08-05T22:54:17.351Z,16.1
2022-08-05T22:56:17.411Z,16.1
2022-08-05T22:58:17.345Z,16.1
2022-08-05T23:00:18.341Z,11.3
2022-08-05T23:02:17.557Z,11.3
2022-08-05T23:04:17.367Z,11.3
2022-08-05T23:06:19.048Z,12.9
2022-08-05T23:08:17.383Z,12.9
2022-08-05T23:10:19.850Z,12.9
2022-08-05T23:12:17.496Z,11.3
2022-08-05T23:14:17.379Z,11.3
2022-08-05T23:16:26.182Z,8.0
2022-08-05T23:18:17.393Z,8.0
2022-08-05T23:20:17.934Z,6.4
2022-08-05T23:22:17.453Z,6.4
2022-08-05T23:24:17.398Z,6.4
2022-08-05T23:26:17.395Z,3.2
2022-08-05T23:28:17.499Z,4.8
2022-08-05T23:30:17.388Z,6.4
2022-08-05T23:32:17.568Z,6.4
2022-08-05T23:34:24.482Z,6.4
2022-08-05T23:36:17.398Z,4.8
2022-08-05T23:38:17.391Z,4.8
2022-08-05T23:40:17.434Z,4.8
2022-08-05T23:42:29.082Z,6.4
2022-08-05T23:44:17.423Z,6.4
2022-08-05T23:46:20.185Z,6.4
2022-08-05T23:48:17.405Z,6.4
2022-08-05T23:50:20.284Z,6.4
2022-08-05T23:52:17.464Z,6.4
2022-08-05T23:54:17.416Z,4.8
2022-08-05T23:56:20.025Z,4.8
2022-08-05T23:58:31.614Z,6.4
